• Join FlightAware (Why Join?)
  • Login
  • US Flag 
02:55PM EDT


 

Airport Tracker/Info


-or-


 

Live Flight TrackerFlight Track Log ✈ TPA702 ✈ 06-Nov-2013 ✈ SKRG / MDE - KMIA

Flight Track Log - Related Links

Times and Time Zones

All times are in EST time to prevent confusion due to time zone crossing. See the TPA702 flight status page for this flight to view local times or setup timezone preferences in your user account.

Time Position Orientation Groundspeed Altitude Reporting Facility
EST Latitude Longitude Course Direction KTS MPH feet Rate Location/Type
09:50AM 22.3000 -78.6325 346° North 459 528 40,000  Level Miami Center
09:51AM 22.4250 -78.6656 346° North 469 540 40,000  Level Miami Center
09:52AM 22.5481 -78.6897 350° North 452 520 40,000  Level Miami Center
09:53AM 22.6731 -78.7206 347° North 452 520 40,000  Level Miami Center
09:54AM 22.8019 -78.7631 343° North 458 527 40,000  Level Miami Center
09:55AM 22.9289 -78.7986 346° North 458 527 40,000  Level Miami Center
09:56AM 23.0539 -78.8300 347° North 447 514 40,000  Level Miami Center
10:02AM 23.8010 -79.0180 347° North 464 534 40,000  Level FlightAware
10:02AM 23.8760 -79.0300 352° North 468 539 40,000  Level FlightAware
10:03AM 23.9860 -79.0190 North 471 542 40,000  Level FlightAware
10:04AM 24.0610 -79.0100 North 471 542 40,000  Level FlightAware
10:04AM 24.1360 -78.9980 North 465 535 40,000  Level FlightAware
10:05AM 24.2010 -78.9780 16° North 467 537 40,000 -480 Level FlightAware
10:06AM 24.2840 -78.9520 16° North 469 540 39,500 -1,920 Descending FlightAware
10:06AM 24.3440 -78.9420 North 477 549 38,000 -2,700 Descending FlightAware
10:07AM 24.4320 -78.9480 356° North 468 539 36,400 -2,880 Descending FlightAware
10:07AM 24.5290 -78.9560 356° North 488 562 34,000 -1,740 Descending FlightAware
10:08AM 24.6110 -78.9640 355° North 488 562 34,000  Level FlightAware
10:09AM 24.7030 -78.9730 355° North 488 562 34,000 -4,140 Level FlightAware
10:10AM 24.8310 -79.1530 308° West 486 559 26,100 -5,820 Descending FlightAware
10:11AM 24.8820 -79.2050 317° Northwest 482 555 24,500 -4,020 Descending FlightAware
10:11AM 24.9610 -79.2850 317° Northwest 449 517 20,800 -4,080 Descending FlightAware
10:12AM 25.0220 -79.3480 317° Northwest 445 512 18,400 -2,520 Descending FlightAware
10:13AM 25.0820 -79.4080 318° Northwest 418 481 17,400 -2,040 Descending FlightAware
10:13AM 25.1350 -79.4630 317° Northwest 420 483 15,800 -1,980 Descending FlightAware
10:14AM 25.2020 -79.5310 317° Northwest 401 461 14,600 -1,860 Descending FlightAware
10:15AM 25.2640 -79.5950 317° Northwest 398 458 13,000 -1,920 Descending FlightAware
10:15AM 25.3100 -79.6420 317° Northwest 395 455 12,100 -1,020 Descending FlightAware
10:16AM 25.3680 -79.7010 317° Northwest 355 409 11,700 -540 Descending FlightAware
10:17AM 25.4100 -79.7550 311° West 333 383 11,400 -480 Descending FlightAware
10:18AM 25.4450 -79.8080 306° West 306 352 11,100 -900 Descending FlightAware
10:19AM 25.4970 -79.8880 306° West 297 342 9,900 -780 Descending FlightAware
10:19AM 25.5230 -79.9260 307° West 288 331 9,900  Level FlightAware
10:20AM 25.5460 -79.9610 306° West 288 331 9,900  Level FlightAware
10:20AM 25.5740 -80.0040 306° West 286 329 9,900 -480 Level FlightAware
10:21AM 25.6010 -80.0450 306° West 286 329 9,400 -1,080 Descending FlightAware
10:21AM 25.6340 -80.0950 306° West 286 329 8,600 -1,200 Descending FlightAware
10:22AM 25.6600 -80.1350 306° West 283 326 7,900 -600 Descending FlightAware
10:23AM 25.6780 -80.1920 289° West 289 333 7,900 -120 Level FlightAware
10:23AM 25.6870 -80.2420 281° West 276 318 7,800 -720 Descending FlightAware
10:24AM 25.6900 -80.2980 273° West 262 302 7,000 -1,140 Descending FlightAware
10:24AM 25.6910 -80.3360 272° West 244 281 6,500 -1,860 Descending FlightAware
10:25AM 25.6930 -80.3760 273° West 256 295 5,200 -2,160 Descending FlightAware
10:26AM 25.6960 -80.4200 274° West 255 293 4,200 -1,140 Descending FlightAware
10:26AM 25.6990 -80.4650 274° West 242 278 3,900 -720 Descending FlightAware
10:27AM 25.7320 -80.4970 319° Northwest 218 251 3,300 -600 Descending FlightAware
10:27AM 25.7560 -80.5020 349° North 196 226 3,200 -600 Descending FlightAware
10:28AM 25.7790 -80.4720 50° Northeast 165 190 2,600 -840 Descending FlightAware
10:29AM 25.7810 -80.4470 85° East 166 191 2,100 -840 Descending FlightAware
10:29AM 25.7820 -80.4050 88° East 156 180 1,500 -780 Descending FlightAware
10:30AM 25.7830 -80.3820 87° East 130 150 1,100 -720 Descending FlightAware
10:31AM 25.7850 -80.3510 86° East 122 140 600 -720 Descending FlightAware
10:31AM 25.7860 -80.3250 88° East 120 138 100 -780 Descending FlightAware
10:32AM 25.7860 -80.3130 90° East 122 140 -300 Descending FlightAware
10:32AM 25.7870 -80.2980 86° East 122 140  Level FlightAware
10:39AM 25.7833 -80.2833 90° East  Level FlightAware Approximate
10:40AM 25.7954 -80.2901 90° East  Level Estimated
10:41AM 25.7954 -80.2901 90° East  Level Estimated